Time;durP1;ratioP1;P1;durP2;ratioP2;P2;SDS_P1;SDS_P2;PMS_P1;PMS_P2;Temp;Humidity;BMP_temperature;BMP_pressure;BME280_temperature;BME280_humidity;BME280_pressure;Samples;Min_cycle;Max_cycle;Signal;HPM_P1;HPM_P2
2021/09/20 00:00:36;;;;;;;13.85;10.13;;;13.60;99.90;;;;;;5015753;28;20349;-61
2021/09/20 00:03:02;;;;;;;14.02;10.73;;;13.70;99.90;;;;;;5018651;28;20052;-61
2021/09/20 00:05:28;;;;;;;15.05;10.57;;;13.70;99.90;;;;;;5020528;28;20056;-61
2021/09/20 00:07:53;;;;;;;15.20;10.60;;;13.70;99.90;;;;;;5015087;28;21070;-61
2021/09/20 00:10:19;;;;;;;11.90;9.18;;;13.70;99.90;;;;;;5014573;28;20386;-62
2021/09/20 00:12:45;;;;;;;12.13;9.52;;;13.70;99.90;;;;;;5012080;28;20034;-62
2021/09/20 00:15:11;;;;;;;14.45;10.00;;;13.70;99.90;;;;;;5013392;28;20025;-61
2021/09/20 00:17:37;;;;;;;13.50;9.68;;;13.60;99.90;;;;;;5014822;28;20113;-62
2021/09/20 00:20:05;;;;;;;17.83;10.35;;;13.60;99.90;;;;;;5006671;28;20064;-62
2021/09/20 00:22:31;;;;;;;19.45;10.98;;;13.50;99.90;;;;;;5002539;28;20021;-62
2021/09/20 00:24:57;;;;;;;15.73;10.13;;;13.50;99.90;;;;;;5013856;28;20038;-60
2021/09/20 00:27:23;;;;;;;15.55;10.43;;;13.50;99.90;;;;;;5023982;28;20523;-61
2021/09/20 00:29:49;;;;;;;13.65;10.48;;;13.60;99.90;;;;;;5014374;28;20029;-60
2021/09/20 00:32:14;;;;;;;17.45;11.43;;;13.60;99.90;;;;;;5014821;28;20026;-62
2021/09/20 00:34:42;;;;;;;16.50;10.05;;;13.70;99.90;;;;;;5014252;28;20025;-60
2021/09/20 00:37:08;;;;;;;13.57;10.32;;;13.70;99.90;;;;;;5014673;28;20030;-60
2021/09/20 00:39:34;;;;;;;13.48;10.70;;;13.70;99.90;;;;;;5014383;28;20058;-60
2021/09/20 00:41:59;;;;;;;16.02;10.93;;;13.60;99.90;;;;;;5015891;28;20062;-61
2021/09/20 00:44:25;;;;;;;13.75;10.60;;;13.60;99.90;;;;;;5011296;28;20429;-62
2021/09/20 00:46:51;;;;;;;13.77;11.13;;;13.60;99.90;;;;;;5015636;28;20094;-61
2021/09/20 00:49:17;;;;;;;18.77;10.85;;;13.60;99.90;;;;;;5018317;28;20037;-62
2021/09/20 00:51:42;;;;;;;15.50;11.05;;;13.60;99.90;;;;;;5021487;28;20064;-61
2021/09/20 00:54:08;;;;;;;16.88;10.75;;;13.50;99.90;;;;;;5019382;28;20128;-61
2021/09/20 00:56:33;;;;;;;14.00;10.80;;;13.40;99.90;;;;;;5014623;28;20500;-62
2021/09/20 00:59:00;;;;;;;15.70;11.30;;;13.40;99.90;;;;;;5012296;28;20041;-62
2021/09/20 01:01:26;;;;;;;15.27;10.60;;;13.40;99.90;;;;;;5014945;28;20468;-62
2021/09/20 01:03:52;;;;;;;14.70;11.07;;;13.40;99.90;;;;;;5014020;28;20053;-62
2021/09/20 01:06:17;;;;;;;17.30;11.48;;;13.40;99.90;;;;;;5014500;28;20076;-60
2021/09/20 01:08:43;;;;;;;17.73;11.70;;;13.30;99.90;;;;;;5017132;28;20121;-62
2021/09/20 01:11:09;;;;;;;21.73;12.07;;;13.30;99.90;;;;;;5021691;28;20021;-62
2021/09/20 01:13:34;;;;;;;18.65;11.60;;;13.30;99.90;;;;;;5018613;28;20033;-61
2021/09/20 01:16:00;;;;;;;15.77;11.38;;;13.20;99.90;;;;;;4998394;28;20021;-62
2021/09/20 01:18:25;;;;;;;14.98;11.48;;;13.30;99.90;;;;;;5016535;28;20029;-62
2021/09/20 01:20:51;;;;;;;16.90;11.82;;;13.20;99.90;;;;;;5018125;28;20033;-60
2021/09/20 01:23:18;;;;;;;17.40;11.52;;;13.30;99.90;;;;;;5019459;28;20065;-62
2021/09/20 01:25:44;;;;;;;16.85;11.68;;;13.20;99.90;;;;;;5016450;28;20073;-61
2021/09/20 01:28:09;;;;;;;16.83;12.05;;;13.20;99.90;;;;;;5015978;28;20064;-62
2021/09/20 01:30:35;;;;;;;15.85;11.18;;;13.10;99.90;;;;;;5015430;28;20036;-60
2021/09/20 01:33:01;;;;;;;16.20;11.13;;;13.10;99.90;;;;;;5016072;28;20417;-62
2021/09/20 01:35:28;;;;;;;19.92;11.20;;;13.00;99.90;;;;;;5018617;28;20113;-62
2021/09/20 01:37:53;;;;;;;21.27;11.20;;;13.10;99.90;;;;;;5017081;28;20432;-63
2021/09/20 01:40:20;;;;;;;15.80;11.18;;;13.00;99.90;;;;;;5016532;28;20079;-61
2021/09/20 01:42:45;;;;;;;18.25;12.63;;;12.90;99.90;;;;;;5017112;28;20624;-61
2021/09/20 01:45:12;;;;;;;15.35;11.48;;;12.80;99.90;;;;;;5014477;28;20029;-61
2021/09/20 01:47:38;;;;;;;17.80;11.98;;;12.70;99.90;;;;;;5015017;28;20485;-62
2021/09/20 01:50:06;;;;;;;20.27;12.02;;;12.70;99.90;;;;;;5014902;28;20038;-62
2021/09/20 01:52:32;;;;;;;18.17;13.00;;;12.70;99.90;;;;;;5016802;28;20413;-62
2021/09/20 01:54:57;;;;;;;17.70;12.23;;;12.60;99.90;;;;;;5014808;28;20060;-61
2021/09/20 01:57:23;;;;;;;16.10;11.63;;;12.50;99.90;;;;;;5015044;28;20076;-61
2021/09/20 01:59:50;;;;;;;20.02;12.40;;;12.50;99.90;;;;;;5026104;28;20052;-62
2021/09/20 02:02:16;;;;;;;18.38;12.98;;;12.50;99.90;;;;;;5016361;28;20026;-62
2021/09/20 02:04:42;;;;;;;16.80;11.93;;;12.40;99.90;;;;;;5013528;28;20108;-60
2021/09/20 02:07:07;;;;;;;17.67;12.02;;;12.40;99.90;;;;;;5016796;28;20104;-62
2021/09/20 02:09:33;;;;;;;21.50;13.95;;;12.40;99.90;;;;;;5014419;28;20034;-61
2021/09/20 02:11:58;;;;;;;20.42;13.25;;;12.30;99.90;;;;;;5017429;28;20022;-62
2021/09/20 02:14:24;;;;;;;17.63;13.13;;;12.20;99.90;;;;;;5015531;28;20030;-61
2021/09/20 02:16:49;;;;;;;20.02;12.43;;;12.10;99.90;;;;;;5013642;28;20018;-61
2021/09/20 02:19:15;;;;;;;22.63;12.88;;;12.10;99.90;;;;;;5016509;28;20036;-62
2021/09/20 02:21:41;;;;;;;21.73;13.27;;;12.00;99.90;;;;;;4997651;28;20033;-61
2021/09/20 02:24:07;;;;;;;29.23;14.13;;;12.00;99.90;;;;;;5017881;28;20033;-61
2021/09/20 02:26:32;;;;;;;18.80;13.25;;;12.00;99.90;;;;;;5013838;28;20038;-62
2021/09/20 02:28:58;;;;;;;20.35;13.30;;;12.00;99.90;;;;;;5016418;28;20076;-62
2021/09/20 02:31:24;;;;;;;21.13;13.50;;;11.80;99.90;;;;;;5020435;28;20055;-62
2021/09/20 02:33:49;;;;;;;19.08;13.57;;;11.80;99.90;;;;;;5016206;28;20025;-61
2021/09/20 02:36:15;;;;;;;21.10;13.70;;;11.80;99.90;;;;;;5017975;28;20037;-62
2021/09/20 02:38:41;;;;;;;22.45;14.75;;;11.80;99.90;;;;;;5016654;28;20041;-60
2021/09/20 02:41:07;;;;;;;21.77;14.55;;;11.80;99.90;;;;;;5018490;28;20026;-59
2021/09/20 02:43:32;;;;;;;20.35;14.35;;;11.70;99.90;;;;;;5013012;28;20029;-60
2021/09/20 02:45:58;;;;;;;22.52;14.43;;;11.70;99.90;;;;;;5015569;28;20045;-61
2021/09/20 02:48:24;;;;;;;22.00;13.75;;;11.70;99.90;;;;;;5012984;28;20079;-60
2021/09/20 02:50:50;;;;;;;26.40;13.85;;;11.60;99.90;;;;;;5015568;28;20033;-61
2021/09/20 02:53:15;;;;;;;22.98;14.20;;;11.60;99.90;;;;;;5020028;28;20032;-61
2021/09/20 02:55:42;;;;;;;22.33;14.13;;;11.60;99.90;;;;;;5014030;28;20022;-61
2021/09/20 02:58:08;;;;;;;21.67;14.20;;;11.60;99.90;;;;;;5014499;28;20026;-62
2021/09/20 03:00:33;;;;;;;19.88;14.70;;;11.50;99.90;;;;;;5017089;28;20025;-62
2021/09/20 03:02:59;;;;;;;20.98;13.40;;;11.50;99.90;;;;;;5022533;28;20034;-62
2021/09/20 03:05:24;;;;;;;18.33;13.27;;;11.30;99.90;;;;;;5015713;28;20028;-62
2021/09/20 03:07:50;;;;;;;22.20;13.73;;;11.40;99.90;;;;;;5013841;28;20041;-61
2021/09/20 03:10:16;;;;;;;21.58;13.95;;;11.30;99.90;;;;;;5013564;28;20525;-61
2021/09/20 03:12:41;;;;;;;20.80;13.52;;;11.20;99.90;;;;;;5013505;28;20087;-60
2021/09/20 03:15:07;;;;;;;21.83;14.90;;;11.30;99.90;;;;;;5016831;28;20062;-61
2021/09/20 03:17:33;;;;;;;22.02;14.50;;;11.20;99.90;;;;;;5020576;28;20037;-62
2021/09/20 03:19:59;;;;;;;22.08;13.55;;;11.20;99.90;;;;;;5013810;28;20049;-61
2021/09/20 03:22:25;;;;;;;20.67;13.70;;;11.10;99.90;;;;;;5016907;28;20057;-60
2021/09/20 03:24:51;;;;;;;19.17;13.25;;;11.10;99.90;;;;;;5015028;28;20462;-62
2021/09/20 03:27:17;;;;;;;20.10;13.98;;;11.10;99.90;;;;;;5018914;28;20112;-60
2021/09/20 03:29:43;;;;;;;21.63;13.65;;;11.10;99.90;;;;;;5011855;28;20026;-62
2021/09/20 03:32:09;;;;;;;22.85;14.02;;;11.00;99.90;;;;;;5012591;28;20022;-62
2021/09/20 03:34:35;;;;;;;22.55;14.60;;;11.00;99.90;;;;;;5018747;28;20030;-61
2021/09/20 03:37:00;;;;;;;21.58;13.25;;;11.00;99.90;;;;;;4995075;28;20026;-62
2021/09/20 03:39:26;;;;;;;22.80;14.20;;;11.00;99.90;;;;;;5014014;28;20034;-60
2021/09/20 03:41:52;;;;;;;21.27;13.80;;;10.90;99.90;;;;;;5012931;28;20096;-61
2021/09/20 03:44:17;;;;;;;24.08;14.57;;;10.90;99.90;;;;;;5015240;28;20046;-62
2021/09/20 03:46:43;;;;;;;21.90;14.43;;;10.90;99.90;;;;;;5015887;28;20025;-62
2021/09/20 03:49:08;;;;;;;24.73;15.23;;;10.90;99.90;;;;;;5016011;28;20086;-62
2021/09/20 03:51:34;;;;;;;23.60;15.85;;;10.90;99.90;;;;;;5015919;28;20025;-61
2021/09/20 03:53:59;;;;;;;22.73;14.85;;;10.90;99.90;;;;;;5020781;28;20524;-60
2021/09/20 03:56:25;;;;;;;27.85;14.95;;;10.90;99.90;;;;;;5011424;28;20033;-60
2021/09/20 03:58:50;;;;;;;23.92;14.75;;;10.80;99.90;;;;;;5014067;28;20038;-61
2021/09/20 04:01:16;;;;;;;26.08;14.55;;;10.80;99.90;;;;;;5013205;28;20030;-61
2021/09/20 04:03:41;;;;;;;21.88;14.35;;;10.80;99.90;;;;;;5016130;28;20065;-61
2021/09/20 04:06:07;;;;;;;21.25;13.70;;;10.80;99.90;;;;;;5016675;28;20060;-61
2021/09/20 04:08:33;;;;;;;24.38;14.27;;;10.90;99.90;;;;;;5013035;28;20030;-61
2021/09/20 04:10:58;;;;;;;22.92;14.27;;;10.80;99.90;;;;;;5015160;28;20069;-62
2021/09/20 04:13:24;;;;;;;21.75;13.40;;;10.80;99.90;;;;;;5015547;28;20026;-62
2021/09/20 04:15:55;;;;;;;22.95;14.15;;;10.80;99.90;;;;;;5011487;28;20393;-62
2021/09/20 04:18:26;;;;;;;21.40;13.48;;;10.90;99.90;;;;;;5013719;28;20087;-62
2021/09/20 04:20:53;;;;;;;23.02;13.80;;;10.90;99.90;;;;;;5018968;28;20458;-62
2021/09/20 04:23:21;;;;;;;21.60;13.30;;;10.90;99.90;;;;;;5013310;28;20037;-62
2021/09/20 04:25:48;;;;;;;22.30;14.70;;;11.00;99.90;;;;;;5014776;28;20742;-61
2021/09/20 04:28:14;;;;;;;19.60;13.15;;;11.10;99.90;;;;;;5015163;28;20378;-62
2021/09/20 04:30:43;;;;;;;20.60;14.00;;;11.10;99.90;;;;;;5016416;28;20040;-62
2021/09/20 04:33:16;;;;;;;22.52;13.75;;;11.00;99.90;;;;;;5012985;28;20029;-62
2021/09/20 04:35:42;;;;;;;17.80;11.93;;;11.10;99.90;;;;;;5013050;28;20037;-62
2021/09/20 04:38:08;;;;;;;24.00;14.65;;;11.10;99.90;;;;;;5012354;28;20046;-62
2021/09/20 04:40:35;;;;;;;21.30;13.55;;;11.10;99.90;;;;;;5016935;28;20029;-61
2021/09/20 04:43:02;;;;;;;24.33;12.93;;;11.10;99.90;;;;;;5016379;28;20030;-60
2021/09/20 04:45:28;;;;;;;23.35;13.23;;;11.10;99.90;;;;;;5016020;28;20041;-61
2021/09/20 04:47:53;;;;;;;19.73;11.95;;;11.10;99.90;;;;;;5020461;28;20029;-62
2021/09/20 04:50:19;;;;;;;23.27;12.43;;;11.10;99.90;;;;;;5016762;28;20405;-60
2021/09/20 04:52:45;;;;;;;17.67;12.00;;;11.10;99.90;;;;;;5015695;28;20030;-60
2021/09/20 04:55:10;;;;;;;21.98;13.48;;;11.00;99.90;;;;;;5019316;28;20026;-60
2021/09/20 04:57:36;;;;;;;20.52;12.80;;;10.90;99.90;;;;;;5018291;28;20496;-60
2021/09/20 05:00:04;;;;;;;21.17;14.18;;;10.80;99.90;;;;;;4998162;28;20037;-61
2021/09/20 05:02:30;;;;;;;24.00;13.93;;;10.80;99.90;;;;;;5022312;28;20156;-60
2021/09/20 05:04:55;;;;;;;17.90;12.43;;;10.80;99.90;;;;;;5022413;28;20120;-61
2021/09/20 05:07:21;;;;;;;24.05;12.52;;;10.70;99.90;;;;;;5024954;28;20040;-60
2021/09/20 05:09:46;;;;;;;20.67;12.65;;;10.70;99.90;;;;;;5027903;28;20021;-60
2021/09/20 05:12:12;;;;;;;23.77;13.68;;;10.80;99.90;;;;;;5022246;28;20033;-60
2021/09/20 05:14:37;;;;;;;21.83;13.45;;;10.70;99.90;;;;;;5021368;28;20052;-60
2021/09/20 05:17:04;;;;;;;24.20;14.18;;;10.70;99.90;;;;;;5059113;22;20400;-61
2021/09/20 05:19:30;;;;;;;27.83;13.05;;;10.70;99.90;;;;;;5096802;28;20047;-61
2021/09/20 05:21:57;;;;;;;17.92;12.13;;;10.70;99.90;;;;;;5094545;28;20036;-62
2021/09/20 05:24:23;;;;;;;20.77;13.15;;;10.70;99.90;;;;;;5092745;28;20487;-60
2021/09/20 05:26:49;;;;;;;23.95;13.65;;;10.80;99.90;;;;;;5092899;28;20071;-61
2021/09/20 05:29:15;;;;;;;20.88;13.45;;;10.80;99.90;;;;;;5083453;28;20040;-61
2021/09/20 05:31:40;;;;;;;26.65;13.18;;;10.70;99.90;;;;;;5089245;28;20028;-60
2021/09/20 05:34:06;;;;;;;28.83;13.65;;;10.70;99.90;;;;;;5085118;28;20107;-60
2021/09/20 05:36:31;;;;;;;25.92;14.98;;;10.70;99.90;;;;;;5088988;28;20020;-60
2021/09/20 05:38:57;;;;;;;24.88;14.38;;;10.70;99.90;;;;;;5079057;28;20713;-61
2021/09/20 05:41:22;;;;;;;20.63;13.70;;;10.70;99.90;;;;;;5078030;28;20016;-62
2021/09/20 05:43:48;;;;;;;26.38;15.00;;;10.80;99.90;;;;;;5073381;28;20407;-61
2021/09/20 05:46:13;;;;;;;23.52;13.65;;;10.80;99.90;;;;;;5089343;28;20062;-62
2021/09/20 05:48:39;;;;;;;21.30;13.50;;;10.80;99.90;;;;;;5082187;28;20023;-62
2021/09/20 05:51:05;;;;;;;22.48;13.57;;;10.80;99.90;;;;;;5079349;28;20429;-61
2021/09/20 05:53:31;;;;;;;23.05;14.57;;;10.80;99.90;;;;;;5089967;28;20028;-62
2021/09/20 05:55:57;;;;;;;27.83;13.80;;;10.90;99.90;;;;;;5074428;28;20478;-62
2021/09/20 05:58:22;;;;;;;22.55;13.70;;;10.90;99.90;;;;;;5071477;28;20455;-61
2021/09/20 06:00:49;;;;;;;30.55;14.10;;;10.90;99.90;;;;;;5072723;28;20103;-62
2021/09/20 06:03:14;;;;;;;22.35;13.60;;;10.90;99.90;;;;;;5078460;28;20055;-60
2021/09/20 06:05:41;;;;;;;25.52;13.43;;;11.00;99.90;;;;;;5083000;28;20343;-59
2021/09/20 06:08:07;;;;;;;19.15;12.23;;;11.10;99.90;;;;;;5075460;28;20051;-59
2021/09/20 06:10:34;;;;;;;28.90;13.75;;;11.20;99.90;;;;;;5084848;28;20024;-60
2021/09/20 06:12:59;;;;;;;18.30;11.95;;;11.20;99.90;;;;;;5092463;28;20024;-62
2021/09/20 06:15:25;;;;;;;21.00;13.65;;;11.30;99.90;;;;;;5080607;28;20095;-58
2021/09/20 06:17:51;;;;;;;21.48;13.57;;;11.40;99.90;;;;;;5077231;28;20115;-60
2021/09/20 06:20:17;;;;;;;24.65;14.02;;;11.50;99.90;;;;;;5084590;28;20112;-60
2021/09/20 06:22:42;;;;;;;19.13;12.38;;;11.60;99.90;;;;;;5072610;28;20029;-60
2021/09/20 06:25:09;;;;;;;26.65;12.70;;;11.70;99.90;;;;;;5074433;28;20449;-60
2021/09/20 06:27:35;;;;;;;23.83;13.30;;;11.80;99.90;;;;;;5071835;28;20063;-58
2021/09/20 06:30:06;;;;;;;20.77;13.13;;;11.90;99.90;;;;;;5077305;28;20071;-60
2021/09/20 06:32:32;;;;;;;19.02;12.77;;;12.00;99.90;;;;;;5072119;28;20040;-61
2021/09/20 06:34:58;;;;;;;18.40;11.98;;;12.00;99.90;;;;;;5072134;28;20029;-60
2021/09/20 06:37:23;;;;;;;19.88;12.02;;;12.10;99.90;;;;;;5076105;28;20024;-59
2021/09/20 06:39:49;;;;;;;17.83;12.05;;;12.20;99.90;;;;;;5072015;28;20032;-60
2021/09/20 06:42:15;;;;;;;16.88;11.48;;;12.20;99.90;;;;;;5072115;28;20016;-58
2021/09/20 06:44:40;;;;;;;21.98;11.68;;;12.20;99.90;;;;;;5071878;28;20056;-59
2021/09/20 06:47:07;;;;;;;19.90;11.27;;;12.30;99.90;;;;;;5072021;28;20067;-59
2021/09/20 06:49:33;;;;;;;19.92;10.95;;;12.30;99.90;;;;;;5071950;28;20028;-59
2021/09/20 06:51:58;;;;;;;17.90;10.68;;;12.40;99.90;;;;;;5071888;28;20020;-59
2021/09/20 06:54:24;;;;;;;13.38;10.38;;;12.50;99.90;;;;;;5071799;28;20032;-59
2021/09/20 06:56:49;;;;;;;17.70;10.35;;;12.50;99.90;;;;;;5071744;28;20029;-60
2021/09/20 06:59:15;;;;;;;20.42;11.43;;;12.60;99.90;;;;;;5071247;28;20029;-60
2021/09/20 07:01:41;;;;;;;16.65;9.95;;;12.70;99.90;;;;;;5078100;28;20031;-59
2021/09/20 07:04:07;;;;;;;17.25;10.95;;;12.70;99.90;;;;;;5082172;28;20520;-60
2021/09/20 07:06:32;;;;;;;14.50;10.35;;;12.80;99.90;;;;;;5081638;28;20544;-59
2021/09/20 07:08:58;;;;;;;18.55;9.82;;;12.90;99.90;;;;;;5070853;28;20478;-60
2021/09/20 07:11:25;;;;;;;17.63;10.90;;;13.00;99.90;;;;;;5076604;28;20028;-59
2021/09/20 07:13:51;;;;;;;16.30;10.05;;;13.10;99.90;;;;;;5071011;28;20483;-62
2021/09/20 07:16:16;;;;;;;14.60;10.13;;;13.20;99.90;;;;;;5077501;28;20816;-61
2021/09/20 07:18:42;;;;;;;14.82;9.88;;;13.20;99.90;;;;;;5075283;28;20033;-60
2021/09/20 07:21:08;;;;;;;18.63;11.00;;;13.30;99.90;;;;;;5074156;28;20028;-59
2021/09/20 07:23:33;;;;;;;17.33;9.05;;;13.40;99.90;;;;;;5073447;28;20400;-60
2021/09/20 07:25:59;;;;;;;11.48;8.77;;;13.40;99.90;;;;;;5071173;28;20510;-58
2021/09/20 07:28:25;;;;;;;13.80;9.40;;;13.40;99.90;;;;;;5070483;28;20025;-61
2021/09/20 07:30:51;;;;;;;12.23;8.77;;;13.60;99.90;;;;;;5071606;28;20035;-60
2021/09/20 07:33:16;;;;;;;11.43;8.35;;;13.60;99.90;;;;;;5071198;28;20025;-62
2021/09/20 07:35:42;;;;;;;15.80;8.90;;;13.70;99.90;;;;;;5071058;28;20029;-59
2021/09/20 07:38:08;;;;;;;10.85;8.10;;;13.70;99.90;;;;;;5070916;28;20028;-60
2021/09/20 07:40:34;;;;;;;13.25;8.23;;;13.80;99.90;;;;;;5070960;28;20512;-62
2021/09/20 07:43:01;;;;;;;12.98;8.68;;;13.80;99.90;;;;;;5070741;28;20044;-61
2021/09/20 07:45:27;;;;;;;11.10;8.27;;;13.90;99.90;;;;;;5070960;28;20033;-62
2021/09/20 07:47:53;;;;;;;16.85;9.00;;;13.90;99.90;;;;;;5070549;28;20028;-60
2021/09/20 07:50:21;;;;;;;12.07;8.55;;;14.00;99.90;;;;;;5077017;28;20097;-61
2021/09/20 07:52:47;;;;;;;13.38;8.30;;;14.10;99.90;;;;;;5070588;28;20510;-59
2021/09/20 07:55:14;;;;;;;18.10;7.72;;;14.10;99.90;;;;;;5077469;28;20448;-60
2021/09/20 07:57:40;;;;;;;10.07;7.75;;;14.20;99.90;;;;;;5084875;28;20196;-62
2021/09/20 08:00:08;;;;;;;12.90;8.10;;;14.20;99.90;;;;;;5071638;28;20029;-60
2021/09/20 08:02:33;;;;;;;11.77;8.52;;;14.30;99.90;;;;;;5070332;28;20024;-60
2021/09/20 08:04:59;;;;;;;14.60;8.00;;;14.40;99.90;;;;;;5069615;28;20021;-63
2021/09/20 08:07:24;;;;;;;11.10;7.63;;;14.50;99.90;;;;;;5069631;28;20028;-60
2021/09/20 08:09:50;;;;;;;12.15;7.80;;;14.50;99.90;;;;;;5070075;28;20407;-62
2021/09/20 08:12:15;;;;;;;12.35;8.63;;;14.60;99.90;;;;;;5077864;28;20070;-62
2021/09/20 08:14:41;;;;;;;12.98;7.80;;;14.70;99.90;;;;;;5073768;28;20510;-61
2021/09/20 08:17:08;;;;;;;9.65;7.38;;;14.70;99.90;;;;;;5073960;28;20039;-60
2021/09/20 08:19:34;;;;;;;13.93;8.63;;;14.70;99.90;;;;;;5069950;28;20346;-61
2021/09/20 08:22:00;;;;;;;10.43;7.90;;;14.70;99.90;;;;;;5071486;28;20029;-61
2021/09/20 08:24:26;;;;;;;12.30;8.13;;;14.70;99.90;;;;;;5069963;28;20472;-60
2021/09/20 08:26:52;;;;;;;13.93;7.50;;;14.80;99.90;;;;;;5073004;28;20062;-61
2021/09/20 08:29:17;;;;;;;10.02;7.63;;;14.70;99.90;;;;;;5080742;28;20020;-58
2021/09/20 08:31:43;;;;;;;12.90;8.10;;;14.70;99.90;;;;;;5070290;28;20024;-60
2021/09/20 08:34:09;;;;;;;11.30;8.63;;;14.70;99.90;;;;;;5076488;28;20033;-60
2021/09/20 08:36:34;;;;;;;11.35;8.10;;;14.80;99.90;;;;;;5071143;28;20028;-62
2021/09/20 08:39:01;;;;;;;12.02;7.93;;;14.70;99.90;;;;;;5076472;28;20081;-59
2021/09/20 08:41:27;;;;;;;13.00;8.35;;;14.80;99.90;;;;;;5069639;28;20024;-58
2021/09/20 08:43:53;;;;;;;11.07;8.57;;;14.80;99.90;;;;;;5070467;28;20016;-62
2021/09/20 08:46:19;;;;;;;9.68;7.78;;;14.90;99.90;;;;;;5071390;28;20025;-56
2021/09/20 08:48:47;;;;;;;12.40;8.23;;;14.90;99.90;;;;;;5069529;28;20093;-60
2021/09/20 08:51:16;;;;;;;14.73;8.52;;;15.00;99.90;;;;;;5070186;28;20031;-59
2021/09/20 08:53:42;;;;;;;13.32;7.72;;;15.00;99.90;;;;;;5070118;28;20044;-61
2021/09/20 08:56:09;;;;;;;11.18;8.05;;;15.10;99.90;;;;;;5079238;28;20099;-62
2021/09/20 08:58:35;;;;;;;11.75;8.32;;;15.20;99.90;;;;;;5071881;28;20054;-60
2021/09/20 09:01:00;;;;;;;9.48;7.43;;;15.20;99.90;;;;;;5075992;28;20029;-60
2021/09/20 09:03:28;;;;;;;14.00;8.55;;;15.30;99.90;;;;;;5070065;28;20040;-60
2021/09/20 09:05:54;;;;;;;12.52;7.93;;;15.40;99.90;;;;;;5069993;28;20029;-62
2021/09/20 09:08:31;;;;;;;13.10;8.05;;;15.40;99.90;;;;;;5069483;28;20040;-62
2021/09/20 09:11:11;;;;;;;14.07;8.07;;;15.40;99.90;;;;;;5080411;28;20103;-62
2021/09/20 09:13:40;;;;;;;10.05;7.72;;;15.40;99.90;;;;;;5070380;28;20158;-59
2021/09/20 09:16:23;;;;;;;12.10;8.02;;;15.50;99.90;;;;;;5070883;28;20020;-59
2021/09/20 09:19:08;;;;;;;14.77;8.50;;;15.50;99.90;;;;;;5082280;28;20032;-62
2021/09/20 09:21:39;;;;;;;8.77;7.50;;;15.60;99.90;;;;;;5072503;28;20497;-60
2021/09/20 09:24:10;;;;;;;11.10;7.78;;;15.60;99.90;;;;;;5070218;28;20115;-62
2021/09/20 09:26:37;;;;;;;10.77;7.95;;;15.50;99.90;;;;;;5070276;28;20437;-61
2021/09/20 09:29:14;;;;;;;10.75;6.85;;;15.50;99.90;;;;;;5073005;28;20056;-62
2021/09/20 09:31:49;;;;;;;12.60;8.55;;;15.60;99.90;;;;;;5073387;28;20040;-62
2021/09/20 09:34:23;;;;;;;11.93;7.43;;;15.60;99.90;;;;;;5073414;28;20066;-62
2021/09/20 09:36:50;;;;;;;;;;;15.70;99.90;;;;;;5073561;28;20487;-62
2021/09/20 09:39:34;;;;;;;9.10;7.32;;;15.80;99.90;;;;;;5072599;28;19926;-62
2021/09/20 09:41:59;;;;;;;13.57;8.17;;;15.90;99.90;;;;;;5073265;28;20088;-62
2021/09/20 09:44:34;;;;;;;11.82;7.22;;;16.00;99.90;;;;;;5073093;28;20804;-60
2021/09/20 09:46:59;;;;;;;;;;;16.00;99.90;;;;;;5073311;28;20027;-63
2021/09/20 09:49:27;;;;;;;9.13;7.10;;;16.10;99.90;;;;;;5072829;28;19908;-62
2021/09/20 09:51:56;;;;;;;12.88;8.10;;;16.20;99.90;;;;;;5075423;28;20082;-63
2021/09/20 09:54:36;;;;;;;10.80;7.47;;;16.30;99.90;;;;;;5078231;28;20059;-60
2021/09/20 09:57:21;;;;;;;9.05;6.82;;;16.30;99.90;;;;;;5072701;28;20020;-61
2021/09/20 09:59:57;;;;;;;10.23;6.88;;;16.50;99.90;;;;;;5072999;28;20110;-61
2021/09/20 10:02:34;;;;;;;8.15;6.85;;;16.60;99.90;;;;;;5073387;28;20443;-63
2021/09/20 10:05:08;;;;;;;12.65;7.20;;;16.70;99.90;;;;;;5073178;28;20438;-62
2021/09/20 10:07:45;;;;;;;11.23;7.13;;;16.70;99.90;;;;;;5074707;28;20036;-62
2021/09/20 10:10:18;;;;;;;8.15;6.65;;;16.60;99.90;;;;;;5080721;28;20043;-62
2021/09/20 10:12:46;;;;;;;8.93;6.70;;;16.80;99.90;;;;;;5077160;28;20032;-61
2021/09/20 10:15:15;;;;;;;10.52;6.97;;;16.80;99.90;;;;;;5080001;28;20065;-62
2021/09/20 10:17:41;;;;;;;7.90;6.75;;;16.90;99.90;;;;;;5079568;28;20108;-62
2021/09/20 10:20:09;;;;;;;8.13;6.20;;;16.90;99.90;;;;;;5079227;28;20162;-62
2021/09/20 10:22:35;;;;;;;13.52;7.40;;;17.00;99.90;;;;;;5084320;28;20064;-60
2021/09/20 10:25:03;;;;;;;8.52;6.15;;;17.10;99.90;;;;;;5082751;28;20078;-59
2021/09/20 10:27:30;;;;;;;9.07;6.60;;;17.30;99.90;;;;;;5072243;28;20024;-60
2021/09/20 10:30:01;;;;;;;12.15;7.45;;;17.30;99.90;;;;;;5072238;28;20530;-59
2021/09/20 10:32:28;;;;;;;16.67;6.22;;;17.50;99.90;;;;;;5076823;28;20025;-58
2021/09/20 10:35:23;;;;;;;11.35;6.93;;;17.30;99.90;;;;;;5075103;28;20024;-59
2021/09/20 10:37:50;;;;;;;8.73;6.90;;;17.50;99.90;;;;;;5082121;28;20016;-60
2021/09/20 10:40:15;;;;;;;9.63;7.00;;;17.50;99.90;;;;;;5088087;28;20099;-61
2021/09/20 10:42:48;;;;;;;15.80;6.35;;;17.50;99.90;;;;;;5079994;28;20028;-59
2021/09/20 10:45:44;;;;;;;11.48;7.00;;;17.60;99.90;;;;;;5074977;28;20029;-60
2021/09/20 10:48:15;;;;;;;16.23;7.03;;;17.70;99.90;;;;;;5074489;28;20620;-63
2021/09/20 10:50:54;;;;;;;9.65;6.63;;;17.80;99.90;;;;;;5071154;28;20054;-60
2021/09/20 10:53:22;;;;;;;8.38;6.35;;;17.90;99.90;;;;;;5069007;28;20586;-63
2021/09/20 10:56:03;;;;;;;10.38;6.10;;;17.90;99.90;;;;;;5074599;28;20009;-62
2021/09/20 10:58:32;;;;;;;8.50;6.18;;;18.10;99.90;;;;;;5071442;28;20036;-62
2021/09/20 11:01:10;;;;;;;11.18;6.22;;;18.10;99.90;;;;;;5069631;28;20024;-62
2021/09/20 11:03:39;;;;;;;9.82;6.22;;;18.20;99.90;;;;;;5087707;28;20513;-59
2021/09/20 11:06:23;;;;;;;96.13;12.30;;;18.50;99.90;;;;;;5079890;28;20033;-59
2021/09/20 11:08:58;;;;;;;12.98;6.00;;;18.30;99.90;;;;;;5074721;28;20035;-58
2021/09/20 11:11:42;;;;;;;8.68;6.10;;;18.30;99.90;;;;;;5072043;28;20015;-60
2021/09/20 11:14:13;;;;;;;8.25;5.90;;;18.20;99.90;;;;;;5073835;28;20035;-60
2021/09/20 11:16:52;;;;;;;9.68;7.00;;;18.30;99.90;;;;;;5074291;28;20074;-61
2021/09/20 11:19:24;;;;;;;7.15;6.00;;;18.10;99.90;;;;;;5068763;28;20123;-61
2021/09/20 11:22:10;;;;;;;8.13;6.30;;;17.90;99.90;;;;;;5115090;22;20069;-63
2021/09/20 11:25:06;;;;;;;9.25;5.93;;;18.00;99.90;;;;;;5107763;28;20031;-61
2021/09/20 11:27:39;;;;;;;7.65;6.18;;;18.00;99.90;;;;;;5060318;28;20067;-61
2021/09/20 11:30:12;;;;;;;11.23;6.70;;;18.00;99.90;;;;;;5085587;28;20104;-61
2021/09/20 11:32:48;;;;;;;13.77;6.13;;;18.10;99.90;;;;;;5101391;28;20024;-62
2021/09/20 11:35:16;;;;;;;7.55;5.90;;;18.30;99.90;;;;;;5096038;28;20087;-62
2021/09/20 11:37:42;;;;;;;13.13;6.93;;;18.30;99.90;;;;;;5107582;28;20439;-59
2021/09/20 11:40:10;;;;;;;14.07;6.93;;;18.30;99.90;;;;;;5096309;28;20025;-62
2021/09/20 11:42:35;;;;;;;12.43;6.60;;;18.30;99.90;;;;;;5100476;28;20031;-61
2021/09/20 11:45:04;;;;;;;11.27;6.40;;;18.10;99.90;;;;;;5087315;28;20419;-60
2021/09/20 11:47:35;;;;;;;8.38;6.03;;;18.40;99.90;;;;;;5093813;28;20073;-61
2021/09/20 11:50:12;;;;;;;7.50;5.95;;;18.50;99.90;;;;;;5086533;28;20096;-62
2021/09/20 11:52:44;;;;;;;8.45;6.50;;;18.50;99.90;;;;;;5087378;28;20028;-63
2021/09/20 11:55:18;;;;;;;9.43;6.90;;;18.30;99.90;;;;;;5087270;28;20028;-62
2021/09/20 11:57:45;;;;;;;;;;;18.20;99.90;;;;;;5104609;28;20431;-61
2021/09/20 12:00:12;;;;;;;7.90;5.93;;;18.50;99.90;;;;;;5092505;28;20432;-61
2021/09/20 12:02:44;;;;;;;9.10;6.72;;;18.50;99.90;;;;;;5087637;28;20039;-60
2021/09/20 12:05:21;;;;;;;9.55;6.32;;;18.60;99.90;;;;;;5087684;28;20629;-61
2021/09/20 12:08:10;;;;;;;8.75;6.72;;;18.50;99.90;;;;;;5087870;28;20031;-60
2021/09/20 12:10:40;;;;;;;9.63;6.30;;;18.30;99.90;;;;;;5087571;28;20016;-61
2021/09/20 12:13:12;;;;;;;9.30;5.70;;;18.60;99.90;;;;;;5083264;28;20077;-62
2021/09/20 12:15:40;;;;;;;9.60;6.35;;;18.70;99.90;;;;;;5087401;28;20487;-61
2021/09/20 12:18:07;;;;;;;10.32;7.30;;;18.70;99.90;;;;;;5087303;28;20035;-60
2021/09/20 12:20:40;;;;;;;11.40;7.43;;;18.70;99.90;;;;;;5087021;28;20442;-58
2021/09/20 12:23:12;;;;;;;8.88;7.13;;;18.30;99.90;;;;;;5087412;28;20043;-60
2021/09/20 12:25:49;;;;;;;10.02;7.05;;;18.30;99.90;;;;;;5085029;28;20028;-61
2021/09/20 12:28:32;;;;;;;7.95;5.97;;;18.30;99.90;;;;;;5104345;28;20108;-61
2021/09/20 12:31:07;;;;;;;7.32;5.60;;;18.70;99.90;;;;;;5085921;28;20031;-61
2021/09/20 12:33:46;;;;;;;8.15;5.80;;;18.90;99.90;;;;;;5085820;28;20036;-61
2021/09/20 12:36:41;;;;;;;8.38;5.95;;;19.00;99.90;;;;;;5082175;28;20044;-61